createdAt,value
2019-01-28T00:02:22.416Z,98418.27
2019-01-28T00:05:26.232Z,98421.02
2019-01-28T00:08:30.088Z,98429.47
2019-01-28T00:11:33.995Z,98429.50
2019-01-28T00:14:37.904Z,98430.58
2019-01-28T00:17:41.916Z,98433.63
2019-01-28T00:20:45.817Z,98433.95
2019-01-28T00:23:49.718Z,98431.75
2019-01-28T00:26:53.596Z,98444.52
2019-01-28T00:29:57.444Z,98440.09
2019-01-28T00:33:01.389Z,98443.27
2019-01-28T00:36:05.435Z,98443.37
2019-01-28T00:39:09.944Z,98446.89
2019-01-28T00:42:13.826Z,98443.56
2019-01-28T00:45:17.762Z,98455.02
2019-01-28T00:48:21.664Z,98448.08
2019-01-28T00:51:25.607Z,98455.14
2019-01-28T00:54:29.426Z,98460.74
2019-01-28T00:57:33.283Z,98463.29
2019-01-28T01:00:37.213Z,98462.76
2019-01-28T01:03:41.169Z,98459.64
2019-01-28T01:06:45.069Z,98468.16
2019-01-28T01:09:48.897Z,98468.03
2019-01-28T01:12:52.865Z,98467.06
2019-01-28T01:15:56.692Z,98471.45
2019-01-28T01:19:00.594Z,98471.95
2019-01-28T01:22:04.579Z,98471.58
2019-01-28T01:25:08.666Z,98477.81
2019-01-28T01:28:12.583Z,98477.03
2019-01-28T01:31:16.615Z,98482.26
2019-01-28T01:34:20.460Z,98484.47
2019-01-28T01:37:24.434Z,98486.17
2019-01-28T01:40:28.392Z,98490.91
2019-01-28T01:43:32.310Z,98483.97
2019-01-28T01:46:36.224Z,98487.89
2019-01-28T01:49:40.128Z,98485.27
2019-01-28T01:52:43.950Z,98492.31
2019-01-28T01:55:47.826Z,98489.20
2019-01-28T01:58:51.658Z,98494.33
2019-01-28T02:01:55.563Z,98498.65
2019-01-28T02:04:59.468Z,98492.61
2019-01-28T02:08:03.374Z,98490.81
2019-01-28T02:11:07.277Z,98495.54
2019-01-28T02:14:11.115Z,98492.92
2019-01-28T02:17:14.930Z,98491.16
2019-01-28T02:20:18.904Z,98493.27
2019-01-28T02:23:22.737Z,98501.11
2019-01-28T02:26:26.581Z,98498.99
2019-01-28T02:29:30.403Z,98502.01
2019-01-28T02:32:34.365Z,98501.51
2019-01-28T02:35:38.243Z,98496.28
2019-01-28T02:38:42.213Z,98501.84
2019-01-28T02:41:46.155Z,98502.81
2019-01-28T02:44:49.986Z,98501.95
2019-01-28T02:47:53.803Z,98505.33
2019-01-28T02:50:57.687Z,98507.95
2019-01-28T02:54:01.531Z,98506.67
2019-01-28T02:57:05.518Z,98514.05
2019-01-28T03:00:14.165Z,98509.75
2019-01-28T03:03:18.007Z,98511.06
2019-01-28T03:06:22.000Z,98515.88
2019-01-28T03:09:25.832Z,98515.82
2019-01-28T03:12:29.751Z,98522.29
2019-01-28T03:15:33.656Z,98520.92
2019-01-28T03:18:37.481Z,98522.63
2019-01-28T03:21:41.374Z,98526.05
2019-01-28T03:24:45.219Z,98522.53
2019-01-28T03:27:49.144Z,98528.66
2019-01-28T03:30:52.987Z,98537.31
2019-01-28T03:33:56.861Z,98539.06
2019-01-28T03:37:00.747Z,98532.99
2019-01-28T03:40:06.143Z,98533.36
2019-01-28T03:43:10.166Z,98539.87
2019-01-28T03:46:14.078Z,98541.58
2019-01-28T03:49:17.987Z,98541.17
2019-01-28T03:52:21.976Z,98546.80
2019-01-28T03:55:25.956Z,98550.23
2019-01-28T03:58:30.430Z,98552.44
2019-01-28T04:01:34.239Z,98551.13
2019-01-28T04:04:38.208Z,98558.07
2019-01-28T04:07:41.993Z,98562.83
2019-01-28T04:10:45.916Z,98560.78
2019-01-28T04:13:49.718Z,98561.28
2019-01-28T04:16:53.598Z,98565.73
2019-01-28T04:19:57.481Z,98566.66
2019-01-28T04:23:01.291Z,98568.06
2019-01-28T04:26:05.176Z,98570.77
2019-01-28T04:29:08.942Z,98566.56
2019-01-28T04:32:12.750Z,98563.23
2019-01-28T04:35:16.698Z,98566.78
2019-01-28T04:38:20.545Z,98568.05
2019-01-28T04:41:24.437Z,98566.78
2019-01-28T04:44:28.245Z,98569.80
2019-01-28T04:47:32.082Z,98571.91
2019-01-28T04:50:35.911Z,98577.11
2019-01-28T04:53:39.722Z,98578.36
2019-01-28T04:56:43.611Z,98581.34
2019-01-28T04:59:47.460Z,98586.55
2019-01-28T05:02:51.398Z,98580.41
2019-01-28T05:05:55.194Z,98585.55
2019-01-28T05:08:59.023Z,98591.62
2019-01-28T05:12:02.919Z,98588.57
2019-01-28T05:15:07.765Z,98588.54
2019-01-28T05:18:11.546Z,98587.64
2019-01-28T05:21:15.334Z,98583.72
2019-01-28T05:24:19.136Z,98589.78
2019-01-28T05:27:22.943Z,98583.66
2019-01-28T05:30:26.931Z,98581.94
2019-01-28T05:33:30.736Z,98579.33
2019-01-28T05:36:34.610Z,98592.39
2019-01-28T05:39:38.480Z,98594.92
2019-01-28T05:42:42.357Z,98594.02
2019-01-28T05:45:46.227Z,98598.41
2019-01-28T05:48:50.049Z,98591.47
2019-01-28T05:51:53.858Z,98596.72
2019-01-28T05:54:57.658Z,98600.64
2019-01-28T05:58:01.480Z,98606.34
2019-01-28T06:01:05.538Z,98613.72
2019-01-28T06:04:09.514Z,98617.61
2019-01-28T06:07:13.313Z,98621.96
2019-01-28T06:10:17.407Z,98614.12
2019-01-28T06:13:21.218Z,98613.22
2019-01-28T06:16:25.043Z,98616.64
2019-01-28T06:19:28.863Z,98617.95
2019-01-28T06:22:32.669Z,98625.79
2019-01-28T06:25:36.641Z,98624.45
2019-01-28T06:28:40.443Z,98630.96
2019-01-28T06:31:44.240Z,98630.09
2019-01-28T06:34:48.066Z,98630.06
2019-01-28T06:37:51.951Z,98636.63
2019-01-28T06:40:55.833Z,98633.61
2019-01-28T06:43:59.640Z,98641.45
2019-01-28T06:47:03.454Z,98636.25
2019-01-28T06:50:08.066Z,98646.30
2019-01-28T06:53:12.120Z,98638.55
2019-01-28T06:56:15.924Z,98653.39
2019-01-28T06:59:19.804Z,98653.02
2019-01-28T07:02:23.631Z,98649.09
2019-01-28T07:05:27.592Z,98657.83
2019-01-28T07:08:31.473Z,98660.45
2019-01-28T07:11:35.291Z,98662.25
2019-01-28T07:14:39.131Z,98667.07
2019-01-28T07:17:43.083Z,98664.95
2019-01-28T07:20:46.983Z,98667.09
2019-01-28T07:23:50.783Z,98671.83
2019-01-28T07:26:54.592Z,98678.77
2019-01-28T07:29:58.486Z,98680.95
2019-01-28T07:33:02.393Z,98682.26
2019-01-28T07:36:06.350Z,98691.00
2019-01-28T07:39:10.238Z,98700.55
2019-01-28T07:42:14.126Z,98698.75
2019-01-28T07:45:21.003Z,98704.80
2019-01-28T07:48:24.811Z,98707.88
2019-01-28T07:51:28.636Z,98713.92
2019-01-28T07:54:32.568Z,98715.16
2019-01-28T07:57:36.374Z,98718.19
2019-01-28T08:00:40.274Z,98732.07
2019-01-28T08:03:44.174Z,98732.92
2019-01-28T08:06:48.130Z,98733.35
2019-01-28T08:09:51.966Z,98735.45
2019-01-28T08:12:55.934Z,98742.82
2019-01-28T08:15:59.848Z,98744.11
2019-01-28T08:19:03.719Z,98746.22
2019-01-28T08:22:07.683Z,98753.17
2019-01-28T08:25:13.156Z,98747.04
2019-01-28T08:28:17.036Z,98745.73
2019-01-28T08:31:20.900Z,98751.77
2019-01-28T08:34:24.807Z,98757.41
2019-01-28T08:37:28.672Z,98766.53
2019-01-28T08:40:32.632Z,98764.30
2019-01-28T08:43:36.452Z,98766.02
2019-01-28T08:46:40.361Z,98768.57
2019-01-28T08:49:44.249Z,98765.93
2019-01-28T08:52:48.199Z,98772.47
2019-01-28T08:55:52.086Z,98772.47
2019-01-28T08:58:56.057Z,98775.43
2019-01-28T09:02:00.018Z,98778.92
2019-01-28T09:05:04.384Z,98775.81
2019-01-28T09:08:08.968Z,98779.30
2019-01-28T09:11:12.780Z,98782.23
2019-01-28T09:14:16.606Z,98787.00
2019-01-28T09:17:20.394Z,98791.33
2019-01-28T09:20:24.483Z,98793.42
2019-01-28T09:23:28.355Z,98796.36
2019-01-28T09:26:32.320Z,98804.59
2019-01-28T09:29:36.204Z,98811.02
2019-01-28T09:32:40.159Z,98810.49
2019-01-28T09:35:44.161Z,98816.07
2019-01-28T09:38:47.937Z,98811.22
2019-01-28T09:41:51.843Z,98819.45
2019-01-28T09:44:55.736Z,98825.90
2019-01-28T09:47:59.719Z,98820.20
2019-01-28T09:51:03.593Z,98828.42
2019-01-28T09:54:07.576Z,98829.67
2019-01-28T09:57:11.456Z,98837.53
2019-01-28T10:00:20.386Z,98832.27
2019-01-28T10:03:24.269Z,98835.34
2019-01-28T10:06:28.163Z,98840.52
2019-01-28T10:09:31.991Z,98844.83
2019-01-28T10:12:35.868Z,98843.45
2019-01-28T10:15:39.826Z,98855.13
2019-01-28T10:18:43.641Z,98847.17
2019-01-28T10:21:47.561Z,98854.94
2019-01-28T10:24:51.432Z,98858.31
2019-01-28T10:27:55.339Z,98866.11
2019-01-28T10:30:59.292Z,98854.30
2019-01-28T10:34:03.193Z,98866.89
2019-01-28T10:37:07.165Z,98863.75
2019-01-28T10:40:13.277Z,98864.03
2019-01-28T10:43:17.152Z,98869.09
2019-01-28T10:46:21.076Z,98861.95
2019-01-28T10:49:24.896Z,98863.95
2019-01-28T10:52:28.794Z,98861.20
2019-01-28T10:55:33.928Z,98858.73
2019-01-28T10:58:37.847Z,98861.78
2019-01-28T11:01:41.807Z,98861.83
2019-01-28T11:04:45.712Z,98863.38
2019-01-28T11:07:49.696Z,98870.36
2019-01-28T11:10:53.692Z,98872.33
2019-01-28T11:13:57.554Z,98876.16
2019-01-28T11:17:01.505Z,98880.61
2019-01-28T11:20:06.794Z,98882.66
2019-01-28T11:23:10.687Z,98891.44
2019-01-28T11:26:14.542Z,98890.70
2019-01-28T11:29:18.450Z,98895.02
2019-01-28T11:32:22.441Z,98895.02
2019-01-28T11:35:26.386Z,98894.14
2019-01-28T11:38:30.453Z,98895.72
2019-01-28T11:41:34.248Z,98897.53
2019-01-28T11:44:38.167Z,98908.66
2019-01-28T11:47:42.186Z,98903.28
2019-01-28T11:50:46.078Z,98910.45
2019-01-28T11:53:50.006Z,98915.59
2019-01-28T11:56:53.823Z,98910.20
2019-01-28T11:59:57.738Z,98913.90
2019-01-28T12:03:01.624Z,98915.33
2019-01-28T12:06:05.891Z,98919.27
2019-01-28T12:09:10.661Z,98927.23
2019-01-28T12:12:14.479Z,98919.69
2019-01-28T12:15:18.654Z,98923.30
2019-01-28T12:18:22.543Z,98921.40
2019-01-28T12:21:26.523Z,98924.02
2019-01-28T12:24:30.325Z,98924.97
2019-01-28T12:27:34.247Z,98933.79
2019-01-28T12:30:38.292Z,98927.96
2019-01-28T12:33:42.125Z,98937.99
2019-01-28T12:36:45.949Z,98938.06
2019-01-28T12:39:49.779Z,98939.67
2019-01-28T12:42:53.728Z,98940.77
2019-01-28T12:45:57.602Z,98952.88
2019-01-28T12:49:01.579Z,98949.02
2019-01-28T12:52:05.515Z,98960.98
2019-01-28T12:55:12.563Z,98957.95
2019-01-28T12:58:16.430Z,98963.09
2019-01-28T13:01:20.330Z,98967.25
2019-01-28T13:04:24.258Z,98979.70
2019-01-28T13:07:28.140Z,98984.78
2019-01-28T13:10:32.103Z,98989.32
2019-01-28T13:13:40.943Z,98992.52
2019-01-28T13:16:41.615Z,98998.42
2019-01-28T13:19:45.409Z,99004.13
2019-01-28T13:22:49.269Z,99007.61
2019-01-28T13:25:53.139Z,99012.83
2019-01-28T13:28:57.015Z,99020.33
2019-01-28T13:32:00.901Z,99017.39
2019-01-28T13:35:04.999Z,99025.50
2019-01-28T13:38:08.966Z,99032.75
2019-01-28T13:41:12.829Z,99043.23
2019-01-28T13:44:16.790Z,99045.88
2019-01-28T13:47:20.672Z,99057.89
2019-01-28T13:50:24.956Z,99062.62
2019-01-28T13:53:28.859Z,99068.03
2019-01-28T13:56:32.722Z,99067.73
2019-01-28T13:59:36.543Z,99075.95
2019-01-28T14:02:40.600Z,99086.17
2019-01-28T14:05:44.516Z,99089.93
2019-01-28T14:08:48.411Z,99094.47
2019-01-28T14:11:52.224Z,99099.81
2019-01-28T14:14:56.201Z,99109.95
2019-01-28T14:18:00.078Z,99110.44
2019-01-28T14:21:06.474Z,99121.80
2019-01-28T14:24:10.359Z,99130.13
2019-01-28T14:27:14.177Z,99132.45
2019-01-28T14:30:24.666Z,99131.03
2019-01-28T14:33:28.526Z,99140.92
2019-01-28T14:36:32.398Z,99149.62
2019-01-28T14:39:36.203Z,99156.48
2019-01-28T14:42:40.022Z,99167.50
2019-01-28T14:45:43.981Z,99167.16
2019-01-28T14:48:49.261Z,99175.66
2019-01-28T14:51:53.290Z,99183.79
2019-01-28T14:54:57.079Z,99183.45
2019-01-28T14:58:01.054Z,99189.70
2019-01-28T15:01:05.380Z,99190.84
2019-01-28T15:04:09.877Z,99201.73
2019-01-28T15:07:13.923Z,99201.83
2019-01-28T15:10:18.361Z,99207.73
2019-01-28T15:13:22.212Z,99222.53
2019-01-28T15:16:26.174Z,99222.75
2019-01-28T15:19:29.956Z,99230.03
2019-01-28T15:22:33.802Z,99230.05
2019-01-28T15:25:37.653Z,99242.36
2019-01-28T15:28:41.438Z,99244.33
2019-01-28T15:31:45.227Z,99250.03
2019-01-28T15:34:49.203Z,99259.36
2019-01-28T15:37:53.072Z,99266.42
2019-01-28T15:40:56.945Z,99272.91
2019-01-28T15:44:00.760Z,99278.18
2019-01-28T15:47:04.702Z,99296.62
2019-01-28T15:50:10.653Z,99298.40
2019-01-28T15:53:14.907Z,99300.83
2019-01-28T15:56:18.800Z,99306.64
2019-01-28T15:59:22.609Z,99314.84
2019-01-28T16:02:26.519Z,99325.38
2019-01-28T16:05:30.316Z,99329.10
2019-01-28T16:08:34.213Z,99329.38
2019-01-28T16:11:38.001Z,99336.11
2019-01-28T16:14:41.817Z,99346.31
2019-01-28T16:17:45.675Z,99352.53
2019-01-28T16:20:49.615Z,99360.73
2019-01-28T16:23:53.488Z,99364.23
2019-01-28T16:26:57.299Z,99368.68
2019-01-28T16:30:01.157Z,99382.11
2019-01-28T16:33:05.445Z,99383.84
2019-01-28T16:36:09.541Z,99387.19
2019-01-28T16:39:13.409Z,99395.80
2019-01-28T16:42:18.051Z,99395.11
2019-01-28T16:45:22.000Z,99410.75
2019-01-28T16:48:25.872Z,99411.36
2019-01-28T16:51:29.765Z,99412.34
2019-01-28T16:54:33.640Z,99413.66
2019-01-28T16:57:37.701Z,99417.61
2019-01-28T17:00:43.027Z,99423.49
2019-01-28T17:03:46.901Z,99432.30
2019-01-28T17:06:50.869Z,99439.67
2019-01-28T17:09:55.112Z,99441.95
2019-01-28T17:12:58.923Z,99454.60
2019-01-28T17:16:02.701Z,99455.02
2019-01-28T17:19:06.669Z,99462.48
2019-01-28T17:22:10.539Z,99456.50
2019-01-28T17:25:17.097Z,99464.70
2019-01-28T17:28:20.957Z,99466.52
2019-01-28T17:31:24.824Z,99470.06
2019-01-28T17:34:28.743Z,99469.59
2019-01-28T17:37:32.628Z,99472.59
2019-01-28T17:40:36.799Z,99476.80
2019-01-28T17:43:40.602Z,99477.81
2019-01-28T17:46:44.471Z,99484.34
2019-01-28T17:49:48.288Z,99491.59
2019-01-28T17:52:52.226Z,99493.69
2019-01-28T17:55:56.045Z,99489.44
2019-01-28T17:58:59.847Z,99495.16
2019-01-28T18:02:03.753Z,99492.55
2019-01-28T18:05:08.325Z,99495.97
2019-01-28T18:08:12.277Z,99498.11
2019-01-28T18:11:16.171Z,99502.41
2019-01-28T18:14:19.964Z,99502.00
2019-01-28T18:17:23.791Z,99508.36
2019-01-28T18:20:27.748Z,99513.91
2019-01-28T18:23:47.116Z,99518.89
2019-01-28T18:26:50.917Z,99527.15
2019-01-28T18:29:54.743Z,99524.12
2019-01-28T18:32:58.623Z,99530.30
2019-01-28T18:36:05.607Z,99535.48
2019-01-28T18:39:11.667Z,99545.55
2019-01-28T18:42:15.520Z,99550.78
2019-01-28T18:45:19.931Z,99547.67
2019-01-28T18:48:23.708Z,99548.08
2019-01-28T18:51:27.651Z,99549.27
2019-01-28T18:54:31.457Z,99565.91
2019-01-28T18:57:35.339Z,99564.61
2019-01-28T19:00:39.300Z,99563.41
2019-01-28T19:03:43.110Z,99566.87
2019-01-28T19:07:04.767Z,99571.25
2019-01-28T19:10:18.458Z,99575.59
2019-01-28T19:13:44.316Z,99580.81
2019-01-28T19:17:06.122Z,99589.00
2019-01-28T19:20:43.162Z,99597.72
2019-01-28T19:23:47.067Z,99601.36
2019-01-28T19:26:50.863Z,99604.03
2019-01-28T19:29:54.675Z,99618.03
2019-01-28T19:32:58.547Z,99621.95
2019-01-28T19:36:02.410Z,99626.30
2019-01-28T19:39:08.398Z,99627.23
2019-01-28T19:42:12.347Z,99626.45
2019-01-28T19:45:18.506Z,99631.27
2019-01-28T19:48:22.385Z,99633.03
2019-01-28T19:51:26.268Z,99631.74
2019-01-28T19:54:30.065Z,99639.07
2019-01-28T19:57:34.037Z,99637.02
2019-01-28T20:00:37.911Z,99641.86
2019-01-28T20:03:41.727Z,99642.30
2019-01-28T20:06:45.524Z,99657.06
2019-01-28T20:09:49.351Z,99661.91
2019-01-28T20:12:53.401Z,99675.81
2019-01-28T20:15:57.310Z,99682.80
2019-01-28T20:19:01.214Z,99681.52
2019-01-28T20:22:05.505Z,99684.55
2019-01-28T20:25:11.200Z,99680.66
2019-01-28T20:28:14.978Z,99685.88
2019-01-28T20:31:20.095Z,99692.45
2019-01-28T20:34:24.210Z,99694.63
2019-01-28T20:37:28.164Z,99698.56
2019-01-28T20:40:31.973Z,99697.27
2019-01-28T20:43:35.762Z,99704.24
2019-01-28T20:46:39.575Z,99708.10
2019-01-28T20:49:43.372Z,99706.86
2019-01-28T20:52:47.236Z,99702.57
2019-01-28T20:55:51.027Z,99699.52
2019-01-28T20:58:54.855Z,99714.67
2019-01-28T21:01:58.662Z,99720.34
2019-01-28T21:05:02.557Z,99720.31
2019-01-28T21:08:06.530Z,99718.17
2019-01-28T21:11:10.323Z,99713.42
2019-01-28T21:14:14.131Z,99718.63
2019-01-28T21:17:17.958Z,99720.39
2019-01-28T21:20:22.018Z,99722.14
2019-01-28T21:23:25.818Z,99732.56
2019-01-28T21:26:29.655Z,99732.98
2019-01-28T21:29:33.543Z,99726.91
2019-01-28T21:32:37.458Z,99730.82
2019-01-28T21:35:59.648Z,99732.15
2019-01-28T21:39:05.249Z,99736.50
2019-01-28T21:42:09.222Z,99736.08
2019-01-28T21:45:13.278Z,99743.88
2019-01-28T21:48:17.177Z,99746.50
2019-01-28T21:51:21.006Z,99751.25
2019-01-28T21:54:25.534Z,99753.88
2019-01-28T21:57:29.410Z,99755.17
2019-01-28T22:00:33.202Z,99759.50
2019-01-28T22:03:37.012Z,99754.72
2019-01-28T22:06:40.797Z,99755.98
2019-01-28T22:09:44.582Z,99763.38
2019-01-28T22:12:48.447Z,99774.66
2019-01-28T22:15:52.268Z,99768.16
2019-01-28T22:18:56.099Z,99763.37
2019-01-28T22:21:59.890Z,99765.95
2019-01-28T22:25:04.308Z,99767.69
2019-01-28T22:28:08.172Z,99765.50
2019-01-28T22:31:12.115Z,99766.39
2019-01-28T22:34:15.910Z,99768.12
2019-01-28T22:37:19.753Z,99780.25
2019-01-28T22:40:23.668Z,99788.48
2019-01-28T22:43:27.489Z,99794.08
2019-01-28T22:46:31.311Z,99796.67
2019-01-28T22:49:35.095Z,99805.77
2019-01-28T22:52:38.973Z,99808.80
2019-01-28T22:55:42.796Z,99811.35
2019-01-28T22:58:46.591Z,99820.01
2019-01-28T23:01:50.834Z,99814.80
2019-01-28T23:04:54.619Z,99818.27
2019-01-28T23:07:58.461Z,99824.33
2019-01-28T23:11:02.339Z,99825.19
2019-01-28T23:14:06.833Z,99830.80
2019-01-28T23:17:10.612Z,99832.93
2019-01-28T23:20:14.555Z,99833.77
2019-01-28T23:23:18.373Z,99834.66
2019-01-28T23:26:22.192Z,99826.42
2019-01-28T23:29:26.012Z,99836.36
2019-01-28T23:32:29.893Z,99836.30
2019-01-28T23:35:33.689Z,99842.36
2019-01-28T23:38:37.635Z,99848.45
2019-01-28T23:41:41.508Z,99844.56
2019-01-28T23:44:45.329Z,99851.91
2019-01-28T23:47:49.264Z,99848.87
2019-01-28T23:50:53.097Z,99851.03
2019-01-28T23:53:56.882Z,99850.61
2019-01-28T23:57:00.729Z,99842.34
